sensor_id;sensor_type;location;lat;lon;timestamp;pressure;altitude;pressure_sealevel;temperature;humidity
52319;BME280;38258;51.148;14.068;2023-05-23T00:00:37;97943.47;;;11.90;100.00
52319;BME280;38258;51.148;14.068;2023-05-23T00:03:03;97934.31;;;12.00;100.00
52319;BME280;38258;51.148;14.068;2023-05-23T00:05:31;97940.84;;;12.12;100.00
52319;BME280;38258;51.148;14.068;2023-05-23T00:07:59;97936.13;;;12.20;100.00
52319;BME280;38258;51.148;14.068;2023-05-23T00:10:26;97937.16;;;12.16;100.00
52319;BME280;38258;51.148;14.068;2023-05-23T00:12:53;97938.94;;;12.15;100.00
52319;BME280;38258;51.148;14.068;2023-05-23T00:15:19;97940.72;;;12.15;100.00
52319;BME280;38258;51.148;14.068;2023-05-23T00:17:46;97932.19;;;12.10;100.00
52319;BME280;38258;51.148;14.068;2023-05-23T00:20:13;97920.38;;;12.41;100.00
52319;BME280;38258;51.148;14.068;2023-05-23T00:22:41;97916.72;;;12.45;100.00
52319;BME280;38258;51.148;14.068;2023-05-23T00:25:08;97912.97;;;13.29;100.00
52319;BME280;38258;51.148;14.068;2023-05-23T00:27:35;97909.28;;;14.58;100.00
52319;BME280;38258;51.148;14.068;2023-05-23T00:30:02;97910.50;;;15.02;100.00
52319;BME280;38258;51.148;14.068;2023-05-23T00:32:29;97904.91;;;15.24;100.00
52319;BME280;38258;51.148;14.068;2023-05-23T00:34:56;97909.31;;;15.40;100.00
52319;BME280;38258;51.148;14.068;2023-05-23T00:37:22;97910.19;;;15.40;100.00
52319;BME280;38258;51.148;14.068;2023-05-23T00:39:50;97914.25;;;15.46;100.00
52319;BME280;38258;51.148;14.068;2023-05-23T00:42:19;97915.53;;;15.39;100.00
52319;BME280;38258;51.148;14.068;2023-05-23T00:44:46;97913.75;;;15.39;100.00
52319;BME280;38258;51.148;14.068;2023-05-23T00:47:13;97915.63;;;15.37;100.00
52319;BME280;38258;51.148;14.068;2023-05-23T00:49:39;97929.03;;;15.17;100.00
52319;BME280;38258;51.148;14.068;2023-05-23T00:52:06;97919.34;;;15.01;100.00
52319;BME280;38258;51.148;14.068;2023-05-23T00:54:33;97926.75;;;15.10;100.00
52319;BME280;38258;51.148;14.068;2023-05-23T00:57:01;97916.94;;;14.96;100.00
52319;BME280;38258;51.148;14.068;2023-05-23T00:59:29;97930.34;;;14.76;100.00
52319;BME280;38258;51.148;14.068;2023-05-23T01:01:56;97930.75;;;14.50;100.00
52319;BME280;38258;51.148;14.068;2023-05-23T01:04:23;97933.25;;;14.36;100.00
52319;BME280;38258;51.148;14.068;2023-05-23T01:06:51;97938.03;;;14.27;100.00
52319;BME280;38258;51.148;14.068;2023-05-23T01:09:18;97943.75;;;14.18;100.00
52319;BME280;38258;51.148;14.068;2023-05-23T01:11:51;97938.75;;;14.13;100.00
52319;BME280;38258;51.148;14.068;2023-05-23T01:14:33;97932.94;;;14.07;100.00
52319;BME280;38258;51.148;14.068;2023-05-23T01:17:08;97941.28;;;13.97;100.00
52319;BME280;38258;51.148;14.068;2023-05-23T01:19:54;97932.88;;;13.71;100.00
52319;BME280;38258;51.148;14.068;2023-05-23T01:22:28;97922.91;;;13.61;100.00
52319;BME280;38258;51.148;14.068;2023-05-23T01:25:06;97913.09;;;13.64;100.00
52319;BME280;38258;51.148;14.068;2023-05-23T01:27:47;97909.03;;;13.57;100.00
52319;BME280;38258;51.148;14.068;2023-05-23T01:30:18;97907.88;;;13.45;100.00
52319;BME280;38258;51.148;14.068;2023-05-23T01:32:47;97914.94;;;13.43;100.00
52319;BME280;38258;51.148;14.068;2023-05-23T01:35:15;97920.06;;;13.46;100.00
52319;BME280;38258;51.148;14.068;2023-05-23T01:37:44;97927.66;;;13.52;100.00
52319;BME280;38258;51.148;14.068;2023-05-23T01:40:11;97920.63;;;13.53;100.00
52319;BME280;38258;51.148;14.068;2023-05-23T01:42:38;97913.59;;;13.53;100.00
52319;BME280;38258;51.148;14.068;2023-05-23T01:45:07;97910.56;;;13.43;100.00
52319;BME280;38258;51.148;14.068;2023-05-23T01:47:34;97907.50;;;13.34;100.00
52319;BME280;38258;51.148;14.068;2023-05-23T01:50:02;97899.09;;;13.25;100.00
52319;BME280;38258;51.148;14.068;2023-05-23T01:52:31;97907.69;;;13.29;100.00
52319;BME280;38258;51.148;14.068;2023-05-23T01:54:59;97926.38;;;13.23;100.00
52319;BME280;38258;51.148;14.068;2023-05-23T01:57:28;97927.22;;;13.42;100.00
52319;BME280;38258;51.148;14.068;2023-05-23T01:59:56;97926.88;;;13.50;100.00
52319;BME280;38258;51.148;14.068;2023-05-23T02:02:24;97928.91;;;13.63;100.00
52319;BME280;38258;51.148;14.068;2023-05-23T02:04:50;97932.16;;;13.68;100.00
52319;BME280;38258;51.148;14.068;2023-05-23T02:07:18;97931.50;;;13.64;100.00
52319;BME280;38258;51.148;14.068;2023-05-23T02:09:47;97934.66;;;13.71;100.00
52319;BME280;38258;51.148;14.068;2023-05-23T02:12:14;97923.22;;;13.72;100.00
52319;BME280;38258;51.148;14.068;2023-05-23T02:14:40;97917.47;;;13.64;100.00
52319;BME280;38258;51.148;14.068;2023-05-23T02:17:07;97918.72;;;13.56;100.00
52319;BME280;38258;51.148;14.068;2023-05-23T02:19:35;97907.47;;;13.72;100.00
52319;BME280;38258;51.148;14.068;2023-05-23T02:22:02;97914.09;;;13.79;100.00
52319;BME280;38258;51.148;14.068;2023-05-23T02:24:29;97899.41;;;13.75;100.00
52319;BME280;38258;51.148;14.068;2023-05-23T02:26:57;97891.22;;;13.81;100.00
52319;BME280;38258;51.148;14.068;2023-05-23T02:29:24;97891.31;;;13.80;100.00
52319;BME280;38258;51.148;14.068;2023-05-23T02:31:51;97911.78;;;13.73;100.00
52319;BME280;38258;51.148;14.068;2023-05-23T02:34:18;97912.56;;;13.93;100.00
52319;BME280;38258;51.148;14.068;2023-05-23T02:36:46;97915.03;;;13.96;100.00
52319;BME280;38258;51.148;14.068;2023-05-23T02:39:12;97903.84;;;13.92;100.00
52319;BME280;38258;51.148;14.068;2023-05-23T02:41:39;97907.91;;;13.80;100.00
52319;BME280;38258;51.148;14.068;2023-05-23T02:44:06;97901.81;;;13.80;100.00
52319;BME280;38258;51.148;14.068;2023-05-23T02:46:32;97904.28;;;13.83;100.00
52319;BME280;38258;51.148;14.068;2023-05-23T02:48:59;97896.09;;;13.71;100.00
52319;BME280;38258;51.148;14.068;2023-05-23T02:51:27;97902.22;;;13.72;100.00
52319;BME280;38258;51.148;14.068;2023-05-23T02:53:55;97883.94;;;13.69;100.00
52319;BME280;38258;51.148;14.068;2023-05-23T02:56:21;97887.88;;;13.60;100.00
52319;BME280;38258;51.148;14.068;2023-05-23T02:58:48;97901.00;;;13.60;100.00
52319;BME280;38258;51.148;14.068;2023-05-23T03:01:15;97908.13;;;13.58;100.00
52319;BME280;38258;51.148;14.068;2023-05-23T03:03:42;97885.34;;;13.59;100.00
52319;BME280;38258;51.148;14.068;2023-05-23T03:06:08;97883.69;;;13.56;100.00
52319;BME280;38258;51.148;14.068;2023-05-23T03:08:39;97862.13;;;13.49;100.00
52319;BME280;38258;51.148;14.068;2023-05-23T03:11:07;97846.78;;;13.40;100.00
52319;BME280;38258;51.148;14.068;2023-05-23T03:13:33;97848.72;;;13.36;100.00
52319;BME280;38258;51.148;14.068;2023-05-23T03:16:00;97839.34;;;13.31;100.00
52319;BME280;38258;51.148;14.068;2023-05-23T03:18:27;97841.81;;;13.34;100.00
52319;BME280;38258;51.148;14.068;2023-05-23T03:20:54;97835.81;;;13.32;100.00
52319;BME280;38258;51.148;14.068;2023-05-23T03:23:22;97831.53;;;13.29;100.00
52319;BME280;38258;51.148;14.068;2023-05-23T03:25:48;97813.59;;;13.20;100.00
52319;BME280;38258;51.148;14.068;2023-05-23T03:28:16;97813.59;;;13.20;100.00
52319;BME280;38258;51.148;14.068;2023-05-23T03:30:43;97805.88;;;13.17;100.00
52319;BME280;38258;51.148;14.068;2023-05-23T03:33:11;97803.56;;;13.10;100.00
52319;BME280;38258;51.148;14.068;2023-05-23T03:35:37;97814.31;;;13.23;100.00
52319;BME280;38258;51.148;14.068;2023-05-23T03:38:04;97812.81;;;13.18;100.00
52319;BME280;38258;51.148;14.068;2023-05-23T03:40:31;97806.88;;;13.14;100.00
52319;BME280;38258;51.148;14.068;2023-05-23T03:43:02;97807.19;;;13.25;100.00
52319;BME280;38258;51.148;14.068;2023-05-23T03:45:32;97809.34;;;13.17;100.00
52319;BME280;38258;51.148;14.068;2023-05-23T03:48:02;97806.63;;;13.19;100.00
52319;BME280;38258;51.148;14.068;2023-05-23T03:50:29;97812.31;;;13.28;100.00
52319;BME280;38258;51.148;14.068;2023-05-23T03:52:55;97814.63;;;13.35;100.00
52319;BME280;38258;51.148;14.068;2023-05-23T03:55:23;97818.03;;;13.37;100.00
52319;BME280;38258;51.148;14.068;2023-05-23T03:57:50;97828.38;;;13.40;100.00
52319;BME280;38258;51.148;14.068;2023-05-23T04:00:18;97818.56;;;13.26;100.00
52319;BME280;38258;51.148;14.068;2023-05-23T04:02:50;97809.44;;;13.33;100.00
52319;BME280;38258;51.148;14.068;2023-05-23T04:05:19;97818.03;;;13.37;100.00
52319;BME280;38258;51.148;14.068;2023-05-23T04:07:47;97808.84;;;13.28;100.00
52319;BME280;38258;51.148;14.068;2023-05-23T04:10:15;97808.38;;;13.37;100.00
52319;BME280;38258;51.148;14.068;2023-05-23T04:12:42;97809.66;;;13.48;100.00
52319;BME280;38258;51.148;14.068;2023-05-23T04:15:13;97806.97;;;13.30;100.00
52319;BME280;38258;51.148;14.068;2023-05-23T04:17:51;97802.84;;;13.43;100.00
52319;BME280;38258;51.148;14.068;2023-05-23T04:20:18;97803.72;;;13.44;100.00
52319;BME280;38258;51.148;14.068;2023-05-23T04:22:45;97799.81;;;13.34;100.00
52319;BME280;38258;51.148;14.068;2023-05-23T04:25:11;97802.38;;;13.35;100.00
52319;BME280;38258;51.148;14.068;2023-05-23T04:27:45;97797.72;;;13.40;100.00
52319;BME280;38258;51.148;14.068;2023-05-23T04:30:12;97797.38;;;13.48;100.00
52319;BME280;38258;51.148;14.068;2023-05-23T04:32:44;97801.31;;;13.57;100.00
52319;BME280;38258;51.148;14.068;2023-05-23T04:35:12;97810.81;;;13.77;100.00
52319;BME280;38258;51.148;14.068;2023-05-23T04:37:39;97807.75;;;13.87;100.00
52319;BME280;38258;51.148;14.068;2023-05-23T04:40:07;97819.47;;;13.97;100.00
52319;BME280;38258;51.148;14.068;2023-05-23T04:43:00;97826.03;;;14.06;100.00
52319;BME280;38258;51.148;14.068;2023-05-23T04:45:36;97845.09;;;14.27;100.00
52319;BME280;38258;51.148;14.068;2023-05-23T04:48:22;97854.03;;;14.24;100.00
52319;BME280;38258;51.148;14.068;2023-05-23T04:50:50;97864.97;;;14.33;100.00
52319;BME280;38258;51.148;14.068;2023-05-23T04:53:17;97859.69;;;14.17;100.00
52319;BME280;38258;51.148;14.068;2023-05-23T04:55:44;97855.63;;;14.27;100.00
52319;BME280;38258;51.148;14.068;2023-05-23T04:58:15;97855.16;;;14.36;100.00
52319;BME280;38258;51.148;14.068;2023-05-23T05:00:42;97871.06;;;14.51;100.00
52319;BME280;38258;51.148;14.068;2023-05-23T05:03:09;97877.25;;;14.50;100.00
52319;BME280;38258;51.148;14.068;2023-05-23T05:05:40;97876.50;;;14.48;100.00
52319;BME280;38258;51.148;14.068;2023-05-23T05:08:08;97881.47;;;14.36;100.00
52319;BME280;38258;51.148;14.068;2023-05-23T05:10:36;97872.00;;;14.50;100.00
52319;BME280;38258;51.148;14.068;2023-05-23T05:13:03;97878.75;;;14.38;100.00
52319;BME280;38258;51.148;14.068;2023-05-23T05:15:39;97871.22;;;14.48;100.00
52319;BME280;38258;51.148;14.068;2023-05-23T05:18:05;97872.22;;;14.45;100.00
52319;BME280;38258;51.148;14.068;2023-05-23T05:20:32;97876.78;;;14.41;100.00
52319;BME280;38258;51.148;14.068;2023-05-23T05:22:59;97874.25;;;14.40;100.00
52319;BME280;38258;51.148;14.068;2023-05-23T05:25:28;97885.88;;;14.36;100.00
52319;BME280;38258;51.148;14.068;2023-05-23T05:27:57;97889.13;;;14.41;100.00
52319;BME280;38258;51.148;14.068;2023-05-23T05:30:25;97883.84;;;14.41;100.00
52319;BME280;38258;51.148;14.068;2023-05-23T05:32:56;97880.22;;;14.44;100.00
52319;BME280;38258;51.148;14.068;2023-05-23T05:35:23;97885.56;;;14.42;100.00
52319;BME280;38258;51.148;14.068;2023-05-23T05:37:50;97879.47;;;14.57;100.00
52319;BME280;38258;51.148;14.068;2023-05-23T05:40:17;97880.25;;;14.60;100.00
52319;BME280;38258;51.148;14.068;2023-05-23T05:42:45;97878.38;;;14.62;100.00
52319;BME280;38258;51.148;14.068;2023-05-23T05:45:12;97878.63;;;14.75;100.00
52319;BME280;38258;51.148;14.068;2023-05-23T05:47:41;97868.97;;;15.07;100.00
52319;BME280;38258;51.148;14.068;2023-05-23T05:50:08;97871.69;;;15.06;100.00
52319;BME280;38258;51.148;14.068;2023-05-23T05:52:36;97865.31;;;15.10;100.00
52319;BME280;38258;51.148;14.068;2023-05-23T05:55:06;97873.97;;;15.28;100.00
52319;BME280;38258;51.148;14.068;2023-05-23T05:57:34;97875.41;;;15.34;100.00
52319;BME280;38258;51.148;14.068;2023-05-23T06:00:06;97874.91;;;15.43;100.00
52319;BME280;38258;51.148;14.068;2023-05-23T06:02:44;97885.78;;;15.37;100.00
52319;BME280;38258;51.148;14.068;2023-05-23T06:05:14;97880.00;;;15.30;100.00
52319;BME280;38258;51.148;14.068;2023-05-23T06:07:41;97886.72;;;15.36;100.00
52319;BME280;38258;51.148;14.068;2023-05-23T06:10:08;97887.03;;;15.62;100.00
52319;BME280;38258;51.148;14.068;2023-05-23T06:12:37;97881.34;;;15.53;100.00
52319;BME280;38258;51.148;14.068;2023-05-23T06:15:06;97887.13;;;15.60;100.00
52319;BME280;38258;51.148;14.068;2023-05-23T06:17:35;97882.31;;;15.83;100.00
52319;BME280;38258;51.148;14.068;2023-05-23T06:20:02;97891.81;;;16.02;100.00
52319;BME280;38258;51.148;14.068;2023-05-23T06:22:30;97882.28;;;15.99;100.00
52319;BME280;38258;51.148;14.068;2023-05-23T06:24:57;97888.88;;;15.92;100.00
52319;BME280;38258;51.148;14.068;2023-05-23T06:27:24;97891.72;;;15.57;100.00
52319;BME280;38258;51.148;14.068;2023-05-23T06:29:50;97895.69;;;15.64;100.00
52319;BME280;38258;51.148;14.068;2023-05-23T06:32:18;97894.50;;;15.69;100.00
52319;BME280;38258;51.148;14.068;2023-05-23T06:34:45;97894.38;;;15.57;100.00
52319;BME280;38258;51.148;14.068;2023-05-23T06:37:12;97897.50;;;15.47;100.00
52319;BME280;38258;51.148;14.068;2023-05-23T06:39:38;97897.41;;;15.65;100.00
52319;BME280;38258;51.148;14.068;2023-05-23T06:42:06;97896.13;;;15.72;100.00
52319;BME280;38258;51.148;14.068;2023-05-23T06:44:48;97899.56;;;15.89;100.00
52319;BME280;38258;51.148;14.068;2023-05-23T06:47:18;97904.94;;;15.87;100.00
52319;BME280;38258;51.148;14.068;2023-05-23T06:49:45;97902.81;;;15.94;100.00
52319;BME280;38258;51.148;14.068;2023-05-23T06:52:12;97910.31;;;15.69;100.00
52319;BME280;38258;51.148;14.068;2023-05-23T06:54:38;97897.75;;;15.59;100.00
52319;BME280;38258;51.148;14.068;2023-05-23T06:57:06;97902.09;;;15.60;100.00
52319;BME280;38258;51.148;14.068;2023-05-23T06:59:33;97913.34;;;15.78;100.00
52319;BME280;38258;51.148;14.068;2023-05-23T07:02:00;97908.88;;;15.80;100.00
52319;BME280;38258;51.148;14.068;2023-05-23T07:04:29;97911.47;;;15.96;100.00
52319;BME280;38258;51.148;14.068;2023-05-23T07:07:00;97916.56;;;15.99;100.00
52319;BME280;38258;51.148;14.068;2023-05-23T07:09:27;97911.00;;;16.20;100.00
52319;BME280;38258;51.148;14.068;2023-05-23T07:12:05;97918.00;;;16.35;100.00
52319;BME280;38258;51.148;14.068;2023-05-23T07:14:35;97905.25;;;16.28;100.00
52319;BME280;38258;51.148;14.068;2023-05-23T07:17:03;97914.88;;;16.29;100.00
52319;BME280;38258;51.148;14.068;2023-05-23T07:19:32;97920.25;;;16.42;100.00
52319;BME280;38258;51.148;14.068;2023-05-23T07:21:59;97908.50;;;16.62;100.00
52319;BME280;38258;51.148;14.068;2023-05-23T07:24:26;97902.84;;;17.12;100.00
52319;BME280;38258;51.148;14.068;2023-05-23T07:26:55;97910.09;;;16.93;100.00
52319;BME280;38258;51.148;14.068;2023-05-23T07:29:22;97917.66;;;17.00;100.00
52319;BME280;38258;51.148;14.068;2023-05-23T07:31:51;97918.91;;;16.79;100.00
52319;BME280;38258;51.148;14.068;2023-05-23T07:34:20;97922.81;;;16.58;100.00
52319;BME280;38258;51.148;14.068;2023-05-23T07:36:54;97916.28;;;16.34;100.00
52319;BME280;38258;51.148;14.068;2023-05-23T07:39:23;97914.97;;;16.42;100.00
52319;BME280;38258;51.148;14.068;2023-05-23T07:41:53;97920.88;;;16.61;100.00
52319;BME280;38258;51.148;14.068;2023-05-23T07:44:20;97917.16;;;16.64;100.00
52319;BME280;38258;51.148;14.068;2023-05-23T07:46:46;97912.22;;;17.03;100.00
52319;BME280;38258;51.148;14.068;2023-05-23T07:49:13;97915.00;;;17.14;100.00
52319;BME280;38258;51.148;14.068;2023-05-23T07:51:40;97908.94;;;17.69;100.00
52319;BME280;38258;51.148;14.068;2023-05-23T07:54:10;97912.47;;;18.09;100.00
52319;BME280;38258;51.148;14.068;2023-05-23T07:56:39;97914.81;;;18.27;100.00
52319;BME280;38258;51.148;14.068;2023-05-23T07:59:06;97924.78;;;18.36;100.00
52319;BME280;38258;51.148;14.068;2023-05-23T08:01:33;97926.38;;;17.99;100.00
52319;BME280;38258;51.148;14.068;2023-05-23T08:04:03;97935.09;;;18.67;100.00
52319;BME280;38258;51.148;14.068;2023-05-23T08:06:40;97930.84;;;18.64;100.00
52319;BME280;38258;51.148;14.068;2023-05-23T08:09:10;97926.06;;;19.21;100.00
52319;BME280;38258;51.148;14.068;2023-05-23T08:11:41;97929.75;;;19.32;100.00
52319;BME280;38258;51.148;14.068;2023-05-23T08:14:08;97933.06;;;18.71;100.00
52319;BME280;38258;51.148;14.068;2023-05-23T08:16:38;97933.34;;;18.14;100.00
52319;BME280;38258;51.148;14.068;2023-05-23T08:19:10;97931.47;;;18.29;100.00
52319;BME280;38258;51.148;14.068;2023-05-23T08:21:37;97942.13;;;18.00;100.00
52319;BME280;38258;51.148;14.068;2023-05-23T08:24:03;97944.31;;;18.61;100.00
52319;BME280;38258;51.148;14.068;2023-05-23T08:26:32;97948.31;;;19.32;100.00
52319;BME280;38258;51.148;14.068;2023-05-23T08:29:02;97941.66;;;18.87;100.00
52319;BME280;38258;51.148;14.068;2023-05-23T08:31:30;97928.91;;;19.56;100.00
52319;BME280;38258;51.148;14.068;2023-05-23T08:33:58;97930.75;;;19.42;100.00
52319;BME280;38258;51.148;14.068;2023-05-23T08:36:25;97939.88;;;20.24;100.00
52319;BME280;38258;51.148;14.068;2023-05-23T08:38:52;97927.75;;;20.56;100.00
52319;BME280;38258;51.148;14.068;2023-05-23T08:41:29;97946.19;;;20.34;100.00
52319;BME280;38258;51.148;14.068;2023-05-23T08:44:02;97935.72;;;19.47;100.00
52319;BME280;38258;51.148;14.068;2023-05-23T08:46:38;97936.19;;;19.28;100.00
52319;BME280;38258;51.148;14.068;2023-05-23T08:49:06;97939.03;;;21.39;100.00
52319;BME280;38258;51.148;14.068;2023-05-23T08:51:34;97942.16;;;19.93;100.00
52319;BME280;38258;51.148;14.068;2023-05-23T08:54:09;97944.41;;;19.12;100.00
52319;BME280;38258;51.148;14.068;2023-05-23T08:56:38;97947.91;;;19.25;100.00
52319;BME280;38258;51.148;14.068;2023-05-23T08:59:09;97957.41;;;19.28;100.00
52319;BME280;38258;51.148;14.068;2023-05-23T09:01:37;97948.84;;;19.86;100.00
52319;BME280;38258;51.148;14.068;2023-05-23T09:04:08;97944.16;;;19.65;100.00
52319;BME280;38258;51.148;14.068;2023-05-23T09:06:43;97951.78;;;20.54;100.00
52319;BME280;38258;51.148;14.068;2023-05-23T09:09:10;97956.09;;;20.08;100.00
52319;BME280;38258;51.148;14.068;2023-05-23T09:11:37;97955.03;;;20.11;100.00
52319;BME280;38258;51.148;14.068;2023-05-23T09:14:09;97957.63;;;19.99;100.00
52319;BME280;38258;51.148;14.068;2023-05-23T09:16:37;97951.09;;;19.79;100.00
52319;BME280;38258;51.148;14.068;2023-05-23T09:19:10;97960.97;;;20.61;100.00
52319;BME280;38258;51.148;14.068;2023-05-23T09:21:42;97952.81;;;20.29;100.00
52319;BME280;38258;51.148;14.068;2023-05-23T09:24:14;97958.16;;;20.87;100.00
52319;BME280;38258;51.148;14.068;2023-05-23T09:26:45;97962.31;;;20.79;100.00
52319;BME280;38258;51.148;14.068;2023-05-23T09:29:16;97963.66;;;21.75;100.00
52319;BME280;38258;51.148;14.068;2023-05-23T09:31:44;97954.66;;;22.53;95.54
52319;BME280;38258;51.148;14.068;2023-05-23T09:34:11;97959.09;;;22.31;95.39
52319;BME280;38258;51.148;14.068;2023-05-23T09:36:39;97965.97;;;21.46;97.80
52319;BME280;38258;51.148;14.068;2023-05-23T09:39:10;97958.19;;;20.16;100.00
52319;BME280;38258;51.148;14.068;2023-05-23T09:41:37;97956.69;;;20.83;100.00
52319;BME280;38258;51.148;14.068;2023-05-23T09:44:05;97971.81;;;20.47;100.00
52319;BME280;38258;51.148;14.068;2023-05-23T09:46:35;97951.69;;;20.79;100.00
52319;BME280;38258;51.148;14.068;2023-05-23T09:49:13;97964.38;;;20.75;100.00
52319;BME280;38258;51.148;14.068;2023-05-23T09:51:40;97960.25;;;19.75;100.00
52319;BME280;38258;51.148;14.068;2023-05-23T09:54:07;97966.88;;;19.32;100.00
52319;BME280;38258;51.148;14.068;2023-05-23T09:56:36;97968.38;;;19.60;100.00
52319;BME280;38258;51.148;14.068;2023-05-23T09:59:07;97976.75;;;19.17;100.00
52319;BME280;38258;51.148;14.068;2023-05-23T10:01:37;97978.13;;;19.10;100.00
52319;BME280;38258;51.148;14.068;2023-05-23T10:04:03;97984.16;;;18.73;100.00
52319;BME280;38258;51.148;14.068;2023-05-23T10:06:36;97991.78;;;17.97;100.00
52319;BME280;38258;51.148;14.068;2023-05-23T10:09:09;97986.28;;;17.72;100.00
52319;BME280;38258;51.148;14.068;2023-05-23T10:12:36;97987.78;;;17.76;100.00
52319;BME280;38258;51.148;14.068;2023-05-23T10:15:06;97989.41;;;18.06;100.00
52319;BME280;38258;51.148;14.068;2023-05-23T10:17:44;97996.25;;;18.23;100.00
52319;BME280;38258;51.148;14.068;2023-05-23T10:20:15;97991.59;;;18.27;100.00
52319;BME280;38258;51.148;14.068;2023-05-23T10:22:42;97990.50;;;18.17;100.00
52319;BME280;38258;51.148;14.068;2023-05-23T10:25:09;97987.16;;;18.41;100.00
52319;BME280;38258;51.148;14.068;2023-05-23T10:27:36;97994.06;;;18.56;100.00
52319;BME280;38258;51.148;14.068;2023-05-23T10:30:04;97995.19;;;18.26;100.00
52319;BME280;38258;51.148;14.068;2023-05-23T10:32:32;97989.63;;;18.03;100.00
52319;BME280;38258;51.148;14.068;2023-05-23T10:35:07;98003.25;;;18.37;100.00
52319;BME280;38258;51.148;14.068;2023-05-23T10:37:38;98012.81;;;18.53;100.00
52319;BME280;38258;51.148;14.068;2023-05-23T10:40:15;98001.34;;;18.40;100.00
52319;BME280;38258;51.148;14.068;2023-05-23T10:42:52;98012.09;;;17.96;100.00
52319;BME280;38258;51.148;14.068;2023-05-23T10:45:22;98008.88;;;17.63;100.00
52319;BME280;38258;51.148;14.068;2023-05-23T10:47:50;98014.41;;;17.88;100.00
52319;BME280;38258;51.148;14.068;2023-05-23T10:50:31;98010.44;;;17.80;100.00
52319;BME280;38258;51.148;14.068;2023-05-23T10:52:59;98017.16;;;17.72;100.00
52319;BME280;38258;51.148;14.068;2023-05-23T10:55:30;98012.00;;;17.56;100.00
52319;BME280;38258;51.148;14.068;2023-05-23T10:58:15;98011.75;;;18.02;100.00
52319;BME280;38258;51.148;14.068;2023-05-23T11:00:53;98016.88;;;19.49;100.00
52319;BME280;38258;51.148;14.068;2023-05-23T11:03:30;98011.38;;;20.39;100.00
52319;BME280;38258;51.148;14.068;2023-05-23T11:05:59;98019.19;;;21.12;96.19
52319;BME280;38258;51.148;14.068;2023-05-23T11:08:27;98019.91;;;20.67;96.88
52319;BME280;38258;51.148;14.068;2023-05-23T11:10:58;98025.47;;;20.99;96.58
52319;BME280;38258;51.148;14.068;2023-05-23T11:13:25;98029.16;;;21.99;89.07
52319;BME280;38258;51.148;14.068;2023-05-23T11:16:28;98027.06;;;21.36;88.85
52319;BME280;38258;51.148;14.068;2023-05-23T11:19:22;98019.28;;;20.27;94.76
52319;BME280;38258;51.148;14.068;2023-05-23T11:21:55;98031.53;;;19.92;96.17
52319;BME280;38258;51.148;14.068;2023-05-23T11:24:22;98025.53;;;20.51;97.87
52319;BME280;38258;51.148;14.068;2023-05-23T11:26:53;98024.22;;;20.20;94.76
52319;BME280;38258;51.148;14.068;2023-05-23T11:29:25;98027.78;;;21.38;89.02
52319;BME280;38258;51.148;14.068;2023-05-23T11:31:53;98025.00;;;21.74;87.61
52319;BME280;38258;51.148;14.068;2023-05-23T11:34:20;98023.06;;;21.53;89.96
52319;BME280;38258;51.148;14.068;2023-05-23T11:36:51;98028.72;;;20.92;91.10
52319;BME280;38258;51.148;14.068;2023-05-23T11:39:20;98024.88;;;20.71;92.17
52319;BME280;38258;51.148;14.068;2023-05-23T11:41:57;98023.06;;;20.60;93.30
52319;BME280;38258;51.148;14.068;2023-05-23T11:44:24;98030.50;;;20.55;94.91
52319;BME280;38258;51.148;14.068;2023-05-23T11:47:01;98032.94;;;19.72;100.00
52319;BME280;38258;51.148;14.068;2023-05-23T11:49:29;98032.75;;;19.62;100.00
52319;BME280;38258;51.148;14.068;2023-05-23T11:51:56;98032.41;;;19.17;100.00
52319;BME280;38258;51.148;14.068;2023-05-23T11:54:25;98034.00;;;19.06;100.00
52319;BME280;38258;51.148;14.068;2023-05-23T11:56:52;98043.22;;;19.90;100.00
52319;BME280;38258;51.148;14.068;2023-05-23T11:59:20;98042.56;;;19.36;100.00
52319;BME280;38258;51.148;14.068;2023-05-23T12:01:46;98044.25;;;19.50;100.00
52319;BME280;38258;51.148;14.068;2023-05-23T12:04:13;98045.00;;;18.87;100.00
52319;BME280;38258;51.148;14.068;2023-05-23T12:06:40;98041.41;;;18.88;100.00
52319;BME280;38258;51.148;14.068;2023-05-23T12:09:10;98040.13;;;18.94;100.00
52319;BME280;38258;51.148;14.068;2023-05-23T12:11:40;98035.50;;;19.11;100.00
52319;BME280;38258;51.148;14.068;2023-05-23T12:14:07;98042.72;;;19.09;100.00
52319;BME280;38258;51.148;14.068;2023-05-23T12:16:35;98031.94;;;18.84;100.00
52319;BME280;38258;51.148;14.068;2023-05-23T12:19:03;98042.81;;;18.26;100.00
52319;BME280;38258;51.148;14.068;2023-05-23T12:21:41;98043.53;;;17.73;100.00
52319;BME280;38258;51.148;14.068;2023-05-23T12:24:13;98047.56;;;17.93;100.00
52319;BME280;38258;51.148;14.068;2023-05-23T12:26:51;98050.03;;;17.82;100.00
52319;BME280;38258;51.148;14.068;2023-05-23T12:29:19;98048.97;;;17.85;100.00
52319;BME280;38258;51.148;14.068;2023-05-23T12:31:50;98058.19;;;18.21;100.00
52319;BME280;38258;51.148;14.068;2023-05-23T12:34:19;98047.84;;;18.03;100.00
52319;BME280;38258;51.148;14.068;2023-05-23T12:36:46;98055.94;;;17.44;100.00
52319;BME280;38258;51.148;14.068;2023-05-23T12:39:14;98050.63;;;18.00;100.00
52319;BME280;38258;51.148;14.068;2023-05-23T12:41:41;98045.44;;;18.13;100.00
52319;BME280;38258;51.148;14.068;2023-05-23T12:44:14;98054.81;;;18.59;100.00
52319;BME280;38258;51.148;14.068;2023-05-23T12:46:41;98046.56;;;18.36;100.00
52319;BME280;38258;51.148;14.068;2023-05-23T12:49:07;98055.38;;;18.37;100.00
52319;BME280;38258;51.148;14.068;2023-05-23T12:51:34;98053.69;;;18.89;100.00